createdAt,value
2023-01-29T00:02:12.230Z,71.69
2023-01-29T00:04:38.723Z,71.64
2023-01-29T00:07:05.198Z,71.65
2023-01-29T00:09:32.172Z,71.90
2023-01-29T00:11:58.604Z,72.00
2023-01-29T00:14:26.319Z,71.83
2023-01-29T00:16:54.325Z,71.79
2023-01-29T00:19:23.302Z,72.09
2023-01-29T00:21:49.766Z,72.13
2023-01-29T00:24:18.827Z,71.70
2023-01-29T00:26:45.285Z,72.04
2023-01-29T00:29:12.001Z,72.05
2023-01-29T00:31:38.510Z,71.84
2023-01-29T00:34:04.881Z,71.94
2023-01-29T00:36:31.251Z,72.14
2023-01-29T00:39:01.721Z,72.17
2023-01-29T00:41:51.236Z,72.13
2023-01-29T00:44:36.428Z,72.21
2023-01-29T00:47:03.884Z,72.07
2023-01-29T00:49:30.522Z,72.28
2023-01-29T00:52:16.032Z,72.35
2023-01-29T00:54:42.624Z,72.90
2023-01-29T00:57:09.130Z,72.79
2023-01-29T00:59:35.457Z,72.52
2023-01-29T01:02:20.572Z,72.75
2023-01-29T01:04:47.206Z,72.86
2023-01-29T01:07:13.559Z,72.88
2023-01-29T01:09:58.714Z,72.59
2023-01-29T01:12:25.382Z,72.60
2023-01-29T01:14:51.821Z,72.70
2023-01-29T01:17:18.176Z,72.88
2023-01-29T01:19:45.111Z,72.74
2023-01-29T01:22:12.094Z,72.56
2023-01-29T01:24:39.125Z,72.66
2023-01-29T01:27:06.314Z,72.57
2023-01-29T01:29:33.174Z,72.70
2023-01-29T01:32:02.583Z,72.88
2023-01-29T01:34:29.144Z,72.59
2023-01-29T01:36:59.154Z,72.70
2023-01-29T01:39:25.708Z,72.43
2023-01-29T01:41:53.630Z,72.56
2023-01-29T01:44:52.556Z,72.55
2023-01-29T01:47:33.932Z,72.45
2023-01-29T01:50:12.343Z,72.40
2023-01-29T01:52:45.073Z,72.89
2023-01-29T01:55:14.460Z,72.58
2023-01-29T01:57:44.635Z,72.58
2023-01-29T02:00:15.730Z,72.57
2023-01-29T02:03:03.475Z,72.62
2023-01-29T02:05:51.161Z,72.25
2023-01-29T02:08:54.095Z,71.93
2023-01-29T02:11:20.537Z,72.05
2023-01-29T02:13:47.073Z,72.20
2023-01-29T02:16:13.549Z,72.00
2023-01-29T02:18:39.937Z,71.76
2023-01-29T02:21:30.552Z,71.93
2023-01-29T02:24:28.932Z,72.06
2023-01-29T02:27:02.993Z,71.90
2023-01-29T02:29:57.155Z,72.18
2023-01-29T02:32:36.218Z,72.02
2023-01-29T02:35:32.077Z,72.09
2023-01-29T02:38:17.899Z,71.82
2023-01-29T02:40:49.795Z,72.11
2023-01-29T02:43:40.404Z,72.10
2023-01-29T02:46:39.333Z,72.07
2023-01-29T02:49:37.693Z,71.86
2023-01-29T02:52:21.512Z,71.80
2023-01-29T02:55:04.827Z,71.79
2023-01-29T02:57:44.583Z,72.05
2023-01-29T03:00:17.360Z,72.00
2023-01-29T03:02:54.260Z,72.02
2023-01-29T03:05:44.795Z,72.12
2023-01-29T03:08:15.526Z,72.26
2023-01-29T03:10:54.445Z,72.53
2023-01-29T03:13:45.574Z,72.56
2023-01-29T03:16:34.855Z,72.87
2023-01-29T03:19:22.843Z,73.00
2023-01-29T03:21:59.979Z,73.02
2023-01-29T03:24:50.507Z,73.54
2023-01-29T03:27:39.412Z,73.68
2023-01-29T03:30:28.707Z,73.63
2023-01-29T03:32:59.200Z,73.89
2023-01-29T03:35:39.350Z,74.14
2023-01-29T03:38:11.348Z,74.17
2023-01-29T03:40:56.305Z,74.49
2023-01-29T03:43:46.881Z,74.98
2023-01-29T03:46:24.432Z,74.51
2023-01-29T03:49:11.916Z,74.71
2023-01-29T03:52:01.751Z,74.87
2023-01-29T03:55:06.909Z,74.86
2023-01-29T03:57:41.754Z,75.21
2023-01-29T04:00:21.186Z,75.70
2023-01-29T04:03:14.216Z,75.83
2023-01-29T04:06:09.854Z,75.88
2023-01-29T04:08:51.015Z,76.14
2023-01-29T04:11:20.794Z,76.21
2023-01-29T04:13:47.874Z,75.82
2023-01-29T04:16:20.720Z,76.08
2023-01-29T04:18:48.503Z,76.03
2023-01-29T04:21:16.105Z,76.12
2023-01-29T04:23:42.576Z,76.01
2023-01-29T04:26:35.771Z,76.40
2023-01-29T04:29:24.996Z,76.44
2023-01-29T04:32:15.065Z,76.66
2023-01-29T04:35:15.928Z,76.49
2023-01-29T04:37:54.489Z,76.62
2023-01-29T04:40:28.683Z,76.81
2023-01-29T04:43:06.254Z,76.59
2023-01-29T04:46:04.563Z,76.99
2023-01-29T04:48:45.727Z,77.03
2023-01-29T04:51:25.003Z,77.10
2023-01-29T04:54:08.046Z,76.71
2023-01-29T04:56:40.164Z,77.01
2023-01-29T04:59:15.080Z,77.06
2023-01-29T05:01:41.966Z,77.04
2023-01-29T05:04:14.152Z,77.26
2023-01-29T05:06:42.008Z,77.40
2023-01-29T05:09:09.773Z,77.46
2023-01-29T05:11:38.467Z,77.50
2023-01-29T05:14:08.875Z,77.54
2023-01-29T05:16:44.188Z,77.67
2023-01-29T05:19:13.428Z,77.56
2023-01-29T05:21:42.261Z,77.49
2023-01-29T05:24:10.285Z,77.63
2023-01-29T05:26:55.567Z,77.47
2023-01-29T05:29:22.175Z,77.57
2023-01-29T05:31:48.670Z,77.43
2023-01-29T05:34:15.147Z,77.26
2023-01-29T05:36:41.592Z,77.37
2023-01-29T05:39:08.001Z,77.27
2023-01-29T05:41:34.415Z,77.28
2023-01-29T05:44:00.848Z,77.15
2023-01-29T05:46:27.261Z,76.88
2023-01-29T05:48:53.654Z,77.25
2023-01-29T05:51:20.116Z,77.20
2023-01-29T05:53:46.549Z,77.20
2023-01-29T05:56:13.009Z,76.89
2023-01-29T05:58:39.398Z,77.11
2023-01-29T06:01:10.268Z,77.24
2023-01-29T06:03:36.683Z,77.23
2023-01-29T06:06:03.272Z,77.14
2023-01-29T06:08:29.606Z,76.98
2023-01-29T06:10:56.071Z,77.21
2023-01-29T06:13:23.694Z,76.85
2023-01-29T06:15:50.239Z,77.06
2023-01-29T06:18:16.740Z,76.95
2023-01-29T06:20:43.164Z,77.07
2023-01-29T06:23:09.648Z,76.84
2023-01-29T06:25:36.074Z,76.97
2023-01-29T06:28:02.475Z,76.81
2023-01-29T06:30:29.000Z,76.82
2023-01-29T06:32:58.718Z,77.02
2023-01-29T06:35:25.784Z,77.05
2023-01-29T06:37:52.311Z,77.43
2023-01-29T06:40:19.173Z,78.06
2023-01-29T06:42:46.231Z,78.12
2023-01-29T06:45:12.809Z,78.44
2023-01-29T06:47:39.239Z,78.82
2023-01-29T06:50:06.164Z,78.99
2023-01-29T06:52:32.596Z,79.00
2023-01-29T06:54:58.968Z,79.35
2023-01-29T06:57:25.417Z,79.27
2023-01-29T06:59:51.872Z,79.34
2023-01-29T07:02:18.302Z,79.42
2023-01-29T07:04:44.823Z,79.30
2023-01-29T07:07:13.234Z,79.66
2023-01-29T07:09:41.081Z,79.35
2023-01-29T07:12:08.340Z,79.50
2023-01-29T07:14:34.713Z,79.15
2023-01-29T07:17:01.053Z,79.29
2023-01-29T07:19:27.492Z,79.30
2023-01-29T07:21:53.957Z,79.23
2023-01-29T07:24:20.685Z,79.06
2023-01-29T07:26:47.167Z,78.94
2023-01-29T07:29:13.801Z,78.81
2023-01-29T07:31:42.374Z,78.81
2023-01-29T07:34:11.340Z,78.71
2023-01-29T07:36:37.842Z,78.88
2023-01-29T07:39:04.293Z,79.22
2023-01-29T07:41:33.932Z,78.92
2023-01-29T07:44:00.395Z,78.38
2023-01-29T07:46:26.823Z,78.13
2023-01-29T07:48:53.142Z,78.30
2023-01-29T07:51:21.367Z,78.51
2023-01-29T07:53:47.811Z,78.34
2023-01-29T07:56:14.273Z,78.28
2023-01-29T07:58:40.767Z,78.32
2023-01-29T08:01:08.212Z,78.39
2023-01-29T08:03:35.882Z,78.19
2023-01-29T08:06:06.873Z,78.48
2023-01-29T08:08:33.376Z,78.19
2023-01-29T08:11:05.556Z,78.34
2023-01-29T08:13:32.702Z,78.39
2023-01-29T08:16:01.158Z,78.44
2023-01-29T08:18:27.880Z,78.02
2023-01-29T08:20:59.921Z,78.01
2023-01-29T08:23:26.347Z,78.07
2023-01-29T08:25:52.729Z,77.90
2023-01-29T08:28:19.207Z,77.81
2023-01-29T08:30:45.786Z,77.84
2023-01-29T08:33:12.222Z,77.67
2023-01-29T08:35:38.841Z,77.78
2023-01-29T08:38:07.326Z,77.85
2023-01-29T08:40:35.426Z,78.18
2023-01-29T08:43:05.484Z,77.79
2023-01-29T08:45:38.207Z,77.87
2023-01-29T08:48:07.993Z,77.84
2023-01-29T08:50:35.117Z,77.73
2023-01-29T08:53:03.757Z,77.77
2023-01-29T08:55:30.164Z,77.52
2023-01-29T08:57:59.283Z,77.58
2023-01-29T09:00:25.889Z,77.61
2023-01-29T09:02:52.499Z,77.65
2023-01-29T09:05:19.488Z,77.68
2023-01-29T09:07:46.246Z,77.67
2023-01-29T09:10:13.331Z,77.56
2023-01-29T09:12:48.897Z,77.69
2023-01-29T09:15:21.202Z,77.75
2023-01-29T09:17:49.416Z,77.47
2023-01-29T09:20:16.860Z,77.69
2023-01-29T09:22:55.108Z,77.43
2023-01-29T09:25:21.688Z,77.45
2023-01-29T09:27:48.063Z,77.41
2023-01-29T09:30:14.992Z,77.37
2023-01-29T09:32:57.521Z,77.55
2023-01-29T09:35:24.249Z,77.66
2023-01-29T09:37:59.195Z,77.54
2023-01-29T09:40:38.278Z,77.40
2023-01-29T09:43:13.429Z,77.76
2023-01-29T09:45:57.233Z,77.52
2023-01-29T09:48:28.653Z,77.36
2023-01-29T09:50:58.467Z,77.06
2023-01-29T09:53:50.561Z,77.29
2023-01-29T09:56:22.193Z,77.32
2023-01-29T09:58:48.657Z,77.02
2023-01-29T10:01:29.675Z,77.36
2023-01-29T10:04:06.676Z,77.14
2023-01-29T10:07:01.471Z,77.17
2023-01-29T10:09:45.970Z,76.65
2023-01-29T10:12:30.642Z,77.01
2023-01-29T10:15:17.450Z,77.01
2023-01-29T10:18:08.920Z,77.17
2023-01-29T10:21:29.876Z,77.19
2023-01-29T10:24:17.582Z,76.91
2023-01-29T10:26:44.080Z,77.07
2023-01-29T10:29:18.112Z,77.28
2023-01-29T10:31:49.792Z,77.33
2023-01-29T10:34:44.176Z,76.88
2023-01-29T10:37:24.888Z,77.13
2023-01-29T10:39:51.336Z,77.36
2023-01-29T10:42:25.819Z,77.27
2023-01-29T10:45:19.610Z,77.24
2023-01-29T10:47:59.723Z,77.56
2023-01-29T10:50:47.770Z,77.14
2023-01-29T10:53:45.733Z,77.36
2023-01-29T10:56:25.214Z,77.46
2023-01-29T10:58:55.651Z,77.52
2023-01-29T11:01:22.302Z,77.41
2023-01-29T11:04:01.557Z,77.41
2023-01-29T11:06:34.109Z,77.55
2023-01-29T11:09:29.252Z,77.37
2023-01-29T11:12:11.095Z,77.63
2023-01-29T11:14:51.738Z,77.66
2023-01-29T11:17:20.526Z,77.43
2023-01-29T11:19:48.815Z,77.77
2023-01-29T11:22:19.923Z,77.62
2023-01-29T11:25:06.549Z,77.48
2023-01-29T11:27:35.468Z,77.74
2023-01-29T11:30:02.097Z,77.90
2023-01-29T11:32:32.630Z,78.18
2023-01-29T11:35:19.453Z,78.37
2023-01-29T11:37:47.476Z,78.31
2023-01-29T11:40:19.986Z,78.55
2023-01-29T11:42:47.192Z,78.74
2023-01-29T11:45:32.375Z,78.88
2023-01-29T11:47:59.699Z,79.11
2023-01-29T11:50:30.740Z,79.47
2023-01-29T11:52:59.899Z,79.61
2023-01-29T11:55:49.330Z,79.64
2023-01-29T11:58:23.393Z,80.03
2023-01-29T12:00:51.987Z,80.25
2023-01-29T12:03:28.934Z,80.51
2023-01-29T12:05:59.538Z,80.95
2023-01-29T12:08:33.734Z,81.46
2023-01-29T12:11:35.976Z,81.51
2023-01-29T12:14:06.193Z,81.51
2023-01-29T12:16:41.022Z,81.68
2023-01-29T12:19:31.696Z,81.53
2023-01-29T12:22:02.927Z,81.59
2023-01-29T12:24:54.932Z,81.94
2023-01-29T12:27:27.323Z,81.89
2023-01-29T12:30:11.367Z,81.80
2023-01-29T12:32:54.167Z,82.15
2023-01-29T12:35:30.648Z,82.19
2023-01-29T12:38:22.381Z,82.31
2023-01-29T12:41:00.472Z,82.62
2023-01-29T12:43:42.118Z,82.42
2023-01-29T12:46:18.627Z,82.51
2023-01-29T12:48:49.304Z,82.56
2023-01-29T12:51:20.712Z,82.76
2023-01-29T12:53:58.272Z,82.89
2023-01-29T12:56:47.160Z,82.98
2023-01-29T12:59:25.302Z,83.19
2023-01-29T13:02:13.175Z,83.10
2023-01-29T13:04:48.337Z,82.87
2023-01-29T13:07:24.747Z,82.51
2023-01-29T13:09:55.087Z,82.64
2023-01-29T13:12:23.050Z,82.74
2023-01-29T13:14:54.982Z,82.45
2023-01-29T13:17:42.280Z,82.73
2023-01-29T13:20:23.279Z,82.63
2023-01-29T13:22:53.037Z,82.62
2023-01-29T13:25:20.690Z,82.58
2023-01-29T13:27:48.587Z,82.43
2023-01-29T13:30:33.234Z,82.23
2023-01-29T13:33:10.223Z,82.51
2023-01-29T13:35:41.258Z,82.30
2023-01-29T13:38:29.445Z,82.12
2023-01-29T13:41:01.629Z,82.02
2023-01-29T13:43:33.984Z,81.89
2023-01-29T13:46:12.730Z,82.08
2023-01-29T13:48:46.650Z,81.71
2023-01-29T13:51:19.517Z,81.71
2023-01-29T13:53:56.367Z,81.89
2023-01-29T13:56:33.116Z,81.47
2023-01-29T13:59:01.262Z,81.69
2023-01-29T14:01:49.360Z,81.50
2023-01-29T14:04:19.926Z,81.64
2023-01-29T14:07:03.178Z,81.46
2023-01-29T14:09:37.054Z,81.48
2023-01-29T14:12:21.818Z,81.46
2023-01-29T14:14:48.208Z,81.62
2023-01-29T14:17:16.477Z,81.60
2023-01-29T14:19:59.346Z,81.43
2023-01-29T14:22:28.507Z,81.40
2023-01-29T14:25:00.466Z,81.04
2023-01-29T14:27:28.057Z,81.25
2023-01-29T14:30:18.634Z,81.30
2023-01-29T14:32:50.007Z,81.32
2023-01-29T14:35:25.467Z,81.25
2023-01-29T14:37:56.274Z,81.43
2023-01-29T14:40:25.241Z,81.65
2023-01-29T14:43:20.795Z,81.33
2023-01-29T14:45:49.375Z,81.62
2023-01-29T14:48:34.166Z,81.40
2023-01-29T14:51:09.747Z,81.45
2023-01-29T14:54:23.124Z,81.64
2023-01-29T14:56:58.664Z,81.51
2023-01-29T14:59:43.673Z,81.31
2023-01-29T15:02:26.375Z,81.56
2023-01-29T15:04:56.695Z,81.69
2023-01-29T15:07:27.390Z,81.73
2023-01-29T15:10:24.387Z,81.37
2023-01-29T15:12:54.142Z,81.36
2023-01-29T15:15:26.122Z,81.15
2023-01-29T15:18:03.408Z,81.37
2023-01-29T15:20:29.947Z,81.39
2023-01-29T15:22:57.026Z,81.82
2023-01-29T15:25:23.962Z,82.10
2023-01-29T15:27:50.638Z,82.14
2023-01-29T15:30:31.477Z,81.95
2023-01-29T15:32:58.514Z,82.08
2023-01-29T15:35:39.597Z,82.44
2023-01-29T15:38:25.441Z,82.94
2023-01-29T15:40:57.851Z,83.08
2023-01-29T15:43:27.351Z,82.80
2023-01-29T15:45:59.935Z,83.11
2023-01-29T15:48:37.263Z,83.31
2023-01-29T15:51:07.866Z,83.60
2023-01-29T15:53:48.955Z,83.81
2023-01-29T15:56:22.397Z,84.48
2023-01-29T15:58:50.788Z,84.67
2023-01-29T16:01:17.884Z,85.01
2023-01-29T16:03:45.541Z,85.06
2023-01-29T16:06:12.342Z,85.50
2023-01-29T16:08:40.002Z,87.10
2023-01-29T16:11:07.644Z,87.38
2023-01-29T16:13:37.026Z,88.04
2023-01-29T16:16:19.266Z,88.71
2023-01-29T16:18:59.588Z,88.95
2023-01-29T16:21:38.178Z,88.88
2023-01-29T16:24:10.122Z,89.24
2023-01-29T16:26:38.321Z,89.10
2023-01-29T16:29:11.093Z,89.14
2023-01-29T16:31:38.623Z,89.09
2023-01-29T16:34:16.678Z,89.50
2023-01-29T16:36:55.230Z,89.79
2023-01-29T16:39:27.300Z,90.04
2023-01-29T16:42:24.120Z,90.42
2023-01-29T16:44:52.746Z,90.63
2023-01-29T16:47:27.415Z,90.71
2023-01-29T16:49:56.637Z,90.75
2023-01-29T16:52:32.280Z,90.95
2023-01-29T16:55:20.976Z,90.99
2023-01-29T16:57:53.256Z,90.70
2023-01-29T17:00:29.591Z,90.42
2023-01-29T17:03:04.366Z,89.80
2023-01-29T17:05:33.555Z,89.82
2023-01-29T17:08:00.388Z,90.11
2023-01-29T17:10:28.912Z,90.05
2023-01-29T17:13:05.017Z,89.93
2023-01-29T17:15:43.710Z,89.28
2023-01-29T17:18:31.827Z,89.28
2023-01-29T17:20:58.478Z,89.36
2023-01-29T17:23:25.028Z,89.52
2023-01-29T17:25:51.777Z,89.13
2023-01-29T17:28:18.527Z,88.89
2023-01-29T17:30:56.625Z,88.99
2023-01-29T17:33:31.775Z,88.82
2023-01-29T17:35:58.241Z,88.58
2023-01-29T17:38:26.583Z,88.68
2023-01-29T17:41:00.262Z,88.45
2023-01-29T17:43:29.084Z,88.26
2023-01-29T17:45:55.789Z,88.26
2023-01-29T17:48:25.036Z,88.04
2023-01-29T17:50:54.206Z,88.06
2023-01-29T17:53:22.095Z,87.71
2023-01-29T17:55:49.043Z,87.95
2023-01-29T17:58:26.683Z,88.07
2023-01-29T18:00:54.367Z,87.87
2023-01-29T18:03:21.510Z,87.83
2023-01-29T18:05:49.668Z,87.98
2023-01-29T18:08:23.069Z,87.84
2023-01-29T18:10:49.565Z,88.07
2023-01-29T18:13:15.976Z,88.03
2023-01-29T18:15:42.326Z,87.90
2023-01-29T18:18:14.010Z,87.81
2023-01-29T18:20:40.787Z,87.65
2023-01-29T18:23:08.525Z,88.15
2023-01-29T18:25:35.254Z,88.05
2023-01-29T18:28:02.157Z,88.48
2023-01-29T18:30:28.907Z,87.89
2023-01-29T18:32:55.349Z,88.59
2023-01-29T18:35:22.158Z,88.38
2023-01-29T18:37:48.585Z,88.55
2023-01-29T18:40:17.148Z,88.63
2023-01-29T18:42:47.253Z,88.64
2023-01-29T18:45:13.989Z,89.00
2023-01-29T18:47:40.818Z,88.99
2023-01-29T18:50:08.764Z,89.14
2023-01-29T18:52:36.752Z,89.38
2023-01-29T18:55:03.245Z,89.55
2023-01-29T18:58:27.917Z,89.57
2023-01-29T19:00:16.632Z,89.88
2023-01-29T19:02:45.834Z,90.05
2023-01-29T19:05:12.397Z,89.94
2023-01-29T19:07:38.886Z,90.27
2023-01-29T19:10:09.219Z,89.94
2023-01-29T19:12:35.739Z,90.18
2023-01-29T19:15:02.156Z,90.16
2023-01-29T19:17:28.718Z,90.29
2023-01-29T19:19:56.499Z,90.39
2023-01-29T19:22:22.906Z,90.38
2023-01-29T19:24:49.415Z,90.69
2023-01-29T19:27:15.894Z,90.66
2023-01-29T19:29:42.487Z,90.45
2023-01-29T19:32:09.151Z,90.57
2023-01-29T19:34:35.489Z,90.59
2023-01-29T19:37:01.961Z,90.45
2023-01-29T19:39:32.388Z,90.45
2023-01-29T19:41:59.003Z,90.07
2023-01-29T19:44:25.439Z,90.03
2023-01-29T19:46:53.118Z,89.93
2023-01-29T19:49:19.571Z,89.95
2023-01-29T19:51:46.284Z,90.13
2023-01-29T19:54:12.865Z,89.93
2023-01-29T19:56:39.275Z,89.81
2023-01-29T19:59:07.355Z,89.95
2023-01-29T20:01:34.188Z,90.18
2023-01-29T20:04:00.831Z,89.66
2023-01-29T20:06:30.910Z,90.12
2023-01-29T20:08:58.043Z,90.00
2023-01-29T20:11:25.053Z,89.99
2023-01-29T20:13:56.641Z,90.08
2023-01-29T20:16:23.974Z,90.20
2023-01-29T20:18:50.833Z,90.26
2023-01-29T20:21:22.807Z,90.33
2023-01-29T20:23:50.598Z,90.63
2023-01-29T20:26:18.057Z,90.53
2023-01-29T20:28:47.961Z,90.60
2023-01-29T20:31:15.129Z,90.80
2023-01-29T20:33:42.063Z,90.64
2023-01-29T20:36:10.691Z,90.60
2023-01-29T20:38:37.574Z,90.93
2023-01-29T20:41:09.566Z,91.04
2023-01-29T20:43:36.233Z,91.14
2023-01-29T20:46:05.642Z,91.15
2023-01-29T20:48:35.444Z,91.13
2023-01-29T20:51:16.774Z,91.18
2023-01-29T20:53:48.032Z,91.36
2023-01-29T20:56:16.373Z,91.46
2023-01-29T20:58:43.286Z,91.41
2023-01-29T21:01:11.935Z,91.47
2023-01-29T21:03:39.783Z,91.52
2023-01-29T21:06:08.442Z,91.46
2023-01-29T21:08:35.962Z,91.82
2023-01-29T21:11:03.911Z,91.65
2023-01-29T21:13:30.844Z,91.60
2023-01-29T21:16:00.331Z,91.98
2023-01-29T21:18:26.851Z,91.72
2023-01-29T21:20:54.122Z,92.01
2023-01-29T21:23:20.683Z,92.04
2023-01-29T21:25:47.999Z,92.17
2023-01-29T21:28:15.527Z,92.25
2023-01-29T21:30:42.036Z,92.33
2023-01-29T21:33:08.677Z,92.38
2023-01-29T21:35:36.933Z,92.48
2023-01-29T21:38:04.060Z,92.36
2023-01-29T21:40:30.623Z,93.15
2023-01-29T21:43:12.336Z,93.01
2023-01-29T21:45:39.444Z,93.30
2023-01-29T21:48:06.179Z,93.36
2023-01-29T21:50:32.582Z,93.56
2023-01-29T21:52:59.085Z,93.57
2023-01-29T21:55:25.535Z,93.71
2023-01-29T21:57:52.060Z,93.84
2023-01-29T22:00:19.234Z,94.31
2023-01-29T22:02:46.200Z,94.19
2023-01-29T22:05:19.397Z,94.57
2023-01-29T22:07:49.893Z,94.67
2023-01-29T22:10:17.939Z,94.75
2023-01-29T22:12:44.922Z,94.91
2023-01-29T22:15:12.311Z,95.24
2023-01-29T22:17:41.166Z,95.46
2023-01-29T22:20:12.469Z,95.41
2023-01-29T22:22:38.908Z,95.21
2023-01-29T22:25:05.840Z,95.60
2023-01-29T22:27:33.582Z,95.77
2023-01-29T22:30:00.119Z,95.63
2023-01-29T22:32:26.958Z,95.57
2023-01-29T22:34:53.398Z,95.77
2023-01-29T22:37:22.838Z,96.00
2023-01-29T22:39:49.447Z,95.96
2023-01-29T22:42:18.706Z,95.98
2023-01-29T22:44:45.559Z,96.00
2023-01-29T22:47:14.513Z,95.79
2023-01-29T22:49:41.563Z,96.21
2023-01-29T22:52:11.106Z,96.24
2023-01-29T22:54:42.531Z,96.03
2023-01-29T22:57:14.184Z,96.14
2023-01-29T22:59:41.410Z,96.00
2023-01-29T23:02:08.683Z,96.02
2023-01-29T23:04:35.280Z,96.30
2023-01-29T23:07:02.151Z,96.38
2023-01-29T23:09:28.744Z,96.48
2023-01-29T23:11:55.261Z,96.60
2023-01-29T23:14:21.834Z,96.36
2023-01-29T23:16:48.319Z,96.53
2023-01-29T23:19:15.760Z,96.51
2023-01-29T23:21:42.164Z,96.47
2023-01-29T23:24:09.125Z,96.73
2023-01-29T23:26:57.474Z,96.51
2023-01-29T23:29:23.871Z,96.61
2023-01-29T23:31:50.378Z,96.93
2023-01-29T23:34:16.968Z,97.00
2023-01-29T23:36:43.683Z,96.95
2023-01-29T23:39:10.539Z,97.11
2023-01-29T23:41:36.970Z,97.22
2023-01-29T23:44:04.265Z,97.03
2023-01-29T23:46:31.003Z,96.79
2023-01-29T23:48:57.520Z,97.30
2023-01-29T23:51:24.222Z,97.09
2023-01-29T23:53:50.689Z,97.70
2023-01-29T23:56:17.364Z,97.28
2023-01-29T23:58:44.751Z,97.68
